sensor_id;sensor_type;location;lat;lon;timestamp;P1;durP1;ratioP1;P2;durP2;ratioP2
43813;SDS011;29669;55.706;37.656;2023-07-30T01:30:28;0.47;;;0.47;;
43813;SDS011;29669;55.706;37.656;2023-07-30T01:33:13;0.77;;;0.77;;
43813;SDS011;29669;55.706;37.656;2023-07-30T01:35:49;0.77;;;0.77;;
43813;SDS011;29669;55.706;37.656;2023-07-30T01:38:29;0.93;;;0.93;;
43813;SDS011;29669;55.706;37.656;2023-07-30T01:41:52;0.90;;;0.90;;
43813;SDS011;29669;55.706;37.656;2023-07-30T03:07:30;1.15;;;1.15;;
43813;SDS011;29669;55.706;37.656;2023-07-30T03:11:11;2.25;;;0.90;;
43813;SDS011;29669;55.706;37.656;2023-07-30T03:15:09;0.70;;;0.70;;
43813;SDS011;29669;55.706;37.656;2023-07-30T03:18:01;0.50;;;0.50;;
43813;SDS011;29669;55.706;37.656;2023-07-30T03:20:29;0.50;;;0.50;;
43813;SDS011;29669;55.706;37.656;2023-07-30T03:23:00;0.75;;;0.75;;
43813;SDS011;29669;55.706;37.656;2023-07-30T03:25:28;0.90;;;0.90;;
43813;SDS011;29669;55.706;37.656;2023-07-30T03:27:55;0.50;;;0.50;;
43813;SDS011;29669;55.706;37.656;2023-07-30T03:30:23;0.77;;;0.77;;
43813;SDS011;29669;55.706;37.656;2023-07-30T03:32:51;0.60;;;0.60;;
43813;SDS011;29669;55.706;37.656;2023-07-30T03:35:19;1.00;;;1.00;;
43813;SDS011;29669;55.706;37.656;2023-07-30T03:37:47;2.40;;;1.42;;
43813;SDS011;29669;55.706;37.656;2023-07-30T03:40:15;0.82;;;0.73;;
43813;SDS011;29669;55.706;37.656;2023-07-30T03:42:43;0.60;;;0.60;;
43813;SDS011;29669;55.706;37.656;2023-07-30T03:45:10;0.75;;;0.75;;
43813;SDS011;29669;55.706;37.656;2023-07-30T03:47:38;0.82;;;0.82;;
43813;SDS011;29669;55.706;37.656;2023-07-30T03:50:06;0.82;;;0.82;;
43813;SDS011;29669;55.706;37.656;2023-07-30T03:52:36;0.65;;;0.65;;
43813;SDS011;29669;55.706;37.656;2023-07-30T03:55:04;1.05;;;1.05;;
43813;SDS011;29669;55.706;37.656;2023-07-30T03:57:35;0.55;;;0.55;;
43813;SDS011;29669;55.706;37.656;2023-07-30T04:00:03;2.53;;;0.75;;
43813;SDS011;29669;55.706;37.656;2023-07-30T04:02:40;1.25;;;1.17;;
43813;SDS011;29669;55.706;37.656;2023-07-30T04:05:11;0.57;;;0.57;;
43813;SDS011;29669;55.706;37.656;2023-07-30T04:08:09;1.05;;;0.85;;
43813;SDS011;29669;55.706;37.656;2023-07-30T04:11:42;0.65;;;0.65;;
43813;SDS011;29669;55.706;37.656;2023-07-30T04:14:46;0.82;;;0.82;;
43813;SDS011;29669;55.706;37.656;2023-07-30T04:17:20;0.75;;;0.75;;
43813;SDS011;29669;55.706;37.656;2023-07-30T04:20:26;0.70;;;0.70;;
43813;SDS011;29669;55.706;37.656;2023-07-30T04:23:21;0.60;;;0.60;;
43813;SDS011;29669;55.706;37.656;2023-07-30T04:25:52;0.50;;;0.50;;
43813;SDS011;29669;55.706;37.656;2023-07-30T04:28:29;0.60;;;0.60;;
43813;SDS011;29669;55.706;37.656;2023-07-30T04:31:06;0.73;;;0.73;;
43813;SDS011;29669;55.706;37.656;2023-07-30T04:47:16;0.65;;;0.65;;
43813;SDS011;29669;55.706;37.656;2023-07-30T04:51:06;0.50;;;0.50;;
43813;SDS011;29669;55.706;37.656;2023-07-30T04:55:06;0.90;;;0.90;;
43813;SDS011;29669;55.706;37.656;2023-07-30T05:45:18;0.80;;;0.80;;
43813;SDS011;29669;55.706;37.656;2023-07-30T06:01:02;0.82;;;0.82;;
43813;SDS011;29669;55.706;37.656;2023-07-30T06:04:17;0.70;;;0.70;;
43813;SDS011;29669;55.706;37.656;2023-07-30T06:12:37;0.60;;;0.60;;
43813;SDS011;29669;55.706;37.656;2023-07-30T06:49:06;0.60;;;0.60;;
43813;SDS011;29669;55.706;37.656;2023-07-30T06:51:37;0.80;;;0.75;;
43813;SDS011;29669;55.706;37.656;2023-07-30T06:54:24;0.50;;;0.50;;
43813;SDS011;29669;55.706;37.656;2023-07-30T06:57:24;0.68;;;0.68;;
43813;SDS011;29669;55.706;37.656;2023-07-30T06:59:59;0.50;;;0.50;;
43813;SDS011;29669;55.706;37.656;2023-07-30T07:02:33;0.50;;;0.50;;
43813;SDS011;29669;55.706;37.656;2023-07-30T07:05:10;0.75;;;0.75;;
43813;SDS011;29669;55.706;37.656;2023-07-30T07:07:42;1.30;;;0.98;;
43813;SDS011;29669;55.706;37.656;2023-07-30T07:10:11;0.45;;;0.45;;
43813;SDS011;29669;55.706;37.656;2023-07-30T07:12:39;0.47;;;0.47;;
43813;SDS011;29669;55.706;37.656;2023-07-30T07:15:07;0.40;;;0.40;;
43813;SDS011;29669;55.706;37.656;2023-07-30T07:17:36;0.50;;;0.50;;
43813;SDS011;29669;55.706;37.656;2023-07-30T07:20:06;0.70;;;0.70;;
43813;SDS011;29669;55.706;37.656;2023-07-30T07:22:36;0.82;;;0.82;;
43813;SDS011;29669;55.706;37.656;2023-07-30T07:25:05;0.65;;;0.65;;
43813;SDS011;29669;55.706;37.656;2023-07-30T07:27:33;0.70;;;0.70;;
43813;SDS011;29669;55.706;37.656;2023-07-30T07:30:01;0.82;;;0.82;;
43813;SDS011;29669;55.706;37.656;2023-07-30T07:32:31;0.50;;;0.50;;
43813;SDS011;29669;55.706;37.656;2023-07-30T07:35:08;0.52;;;0.52;;
43813;SDS011;29669;55.706;37.656;2023-07-30T07:37:36;0.50;;;0.50;;
43813;SDS011;29669;55.706;37.656;2023-07-30T07:40:03;0.60;;;0.60;;
43813;SDS011;29669;55.706;37.656;2023-07-30T07:42:32;0.60;;;0.60;;
43813;SDS011;29669;55.706;37.656;2023-07-30T07:44:59;0.52;;;0.52;;
43813;SDS011;29669;55.706;37.656;2023-07-30T07:47:30;0.60;;;0.60;;
43813;SDS011;29669;55.706;37.656;2023-07-30T07:49:58;0.60;;;0.60;;
43813;SDS011;29669;55.706;37.656;2023-07-30T07:52:26;2.38;;;0.88;;
43813;SDS011;29669;55.706;37.656;2023-07-30T07:54:54;0.60;;;0.60;;
43813;SDS011;29669;55.706;37.656;2023-07-30T07:57:26;0.40;;;0.40;;
43813;SDS011;29669;55.706;37.656;2023-07-30T07:59:56;0.50;;;0.50;;
43813;SDS011;29669;55.706;37.656;2023-07-30T08:02:23;0.70;;;0.70;;
43813;SDS011;29669;55.706;37.656;2023-07-30T08:04:51;0.90;;;0.90;;
43813;SDS011;29669;55.706;37.656;2023-07-30T08:07:20;0.50;;;0.50;;
43813;SDS011;29669;55.706;37.656;2023-07-30T08:09:47;0.80;;;0.80;;
43813;SDS011;29669;55.706;37.656;2023-07-30T08:12:15;0.68;;;0.68;;
43813;SDS011;29669;55.706;37.656;2023-07-30T08:14:42;0.70;;;0.70;;
43813;SDS011;29669;55.706;37.656;2023-07-30T08:17:10;1.45;;;1.10;;
43813;SDS011;29669;55.706;37.656;2023-07-30T08:19:38;0.90;;;0.90;;
43813;SDS011;29669;55.706;37.656;2023-07-30T08:22:05;0.70;;;0.70;;
43813;SDS011;29669;55.706;37.656;2023-07-30T08:24:34;0.57;;;0.57;;
43813;SDS011;29669;55.706;37.656;2023-07-30T08:27:02;1.25;;;1.10;;
43813;SDS011;29669;55.706;37.656;2023-07-30T08:29:29;0.82;;;0.82;;
43813;SDS011;29669;55.706;37.656;2023-07-30T08:31:57;0.93;;;0.65;;
43813;SDS011;29669;55.706;37.656;2023-07-30T08:34:25;0.60;;;0.60;;
43813;SDS011;29669;55.706;37.656;2023-07-30T08:36:52;0.45;;;0.45;;
43813;SDS011;29669;55.706;37.656;2023-07-30T08:39:20;0.50;;;0.50;;
43813;SDS011;29669;55.706;37.656;2023-07-30T08:41:50;0.73;;;0.73;;
43813;SDS011;29669;55.706;37.656;2023-07-30T08:44:18;0.70;;;0.70;;
43813;SDS011;29669;55.706;37.656;2023-07-30T08:46:45;0.70;;;0.70;;
43813;SDS011;29669;55.706;37.656;2023-07-30T08:49:13;1.08;;;1.08;;
43813;SDS011;29669;55.706;37.656;2023-07-30T08:51:41;0.57;;;0.57;;
43813;SDS011;29669;55.706;37.656;2023-07-30T08:54:10;0.63;;;0.63;;
43813;SDS011;29669;55.706;37.656;2023-07-30T08:56:41;0.95;;;0.95;;
43813;SDS011;29669;55.706;37.656;2023-07-30T08:59:09;0.50;;;0.50;;
43813;SDS011;29669;55.706;37.656;2023-07-30T09:01:38;1.20;;;1.02;;
43813;SDS011;29669;55.706;37.656;2023-07-30T09:04:08;6.15;;;5.20;;
43813;SDS011;29669;55.706;37.656;2023-07-30T09:06:38;5.97;;;3.28;;
43813;SDS011;29669;55.706;37.656;2023-07-30T09:09:07;6.47;;;3.00;;
43813;SDS011;29669;55.706;37.656;2023-07-30T09:11:38;7.50;;;3.40;;
43813;SDS011;29669;55.706;37.656;2023-07-30T09:14:06;3.42;;;3.10;;
43813;SDS011;29669;55.706;37.656;2023-07-30T09:16:34;4.75;;;3.15;;
43813;SDS011;29669;55.706;37.656;2023-07-30T09:19:02;5.43;;;3.00;;
43813;SDS011;29669;55.706;37.656;2023-07-30T09:21:33;2.85;;;2.65;;
43813;SDS011;29669;55.706;37.656;2023-07-30T09:24:03;4.30;;;2.20;;
43813;SDS011;29669;55.706;37.656;2023-07-30T09:26:45;3.22;;;2.92;;
43813;SDS011;29669;55.706;37.656;2023-07-30T09:29:13;4.13;;;3.17;;
43813;SDS011;29669;55.706;37.656;2023-07-30T09:31:52;3.65;;;2.88;;
43813;SDS011;29669;55.706;37.656;2023-07-30T09:34:24;4.22;;;3.17;;
43813;SDS011;29669;55.706;37.656;2023-07-30T09:36:53;4.65;;;2.65;;
43813;SDS011;29669;55.706;37.656;2023-07-30T09:39:22;4.65;;;2.80;;
43813;SDS011;29669;55.706;37.656;2023-07-30T09:41:53;3.58;;;2.53;;
43813;SDS011;29669;55.706;37.656;2023-07-30T09:44:27;5.07;;;2.92;;
43813;SDS011;29669;55.706;37.656;2023-07-30T09:46:56;2.95;;;2.58;;
43813;SDS011;29669;55.706;37.656;2023-07-30T09:49:24;3.53;;;2.40;;
43813;SDS011;29669;55.706;37.656;2023-07-30T09:51:53;2.80;;;2.40;;
43813;SDS011;29669;55.706;37.656;2023-07-30T09:54:20;2.70;;;2.40;;
43813;SDS011;29669;55.706;37.656;2023-07-30T09:56:49;3.20;;;2.55;;
43813;SDS011;29669;55.706;37.656;2023-07-30T09:59:17;4.50;;;1.92;;
43813;SDS011;29669;55.706;37.656;2023-07-30T10:01:46;3.35;;;2.08;;
43813;SDS011;29669;55.706;37.656;2023-07-30T10:04:20;4.35;;;2.60;;
43813;SDS011;29669;55.706;37.656;2023-07-30T10:06:56;5.05;;;2.55;;
43813;SDS011;29669;55.706;37.656;2023-07-30T10:09:29;2.45;;;2.20;;
43813;SDS011;29669;55.706;37.656;2023-07-30T10:12:01;2.53;;;2.22;;
43813;SDS011;29669;55.706;37.656;2023-07-30T10:14:31;2.55;;;2.08;;
43813;SDS011;29669;55.706;37.656;2023-07-30T10:16:59;3.75;;;2.30;;
43813;SDS011;29669;55.706;37.656;2023-07-30T10:19:28;2.25;;;1.92;;
43813;SDS011;29669;55.706;37.656;2023-07-30T10:24:40;3.17;;;2.30;;
43813;SDS011;29669;55.706;37.656;2023-07-30T10:27:08;3.17;;;2.65;;
43813;SDS011;29669;55.706;37.656;2023-07-30T10:29:40;3.92;;;2.30;;
43813;SDS011;29669;55.706;37.656;2023-07-30T10:32:10;2.53;;;2.33;;
43813;SDS011;29669;55.706;37.656;2023-07-30T10:34:45;2.30;;;2.10;;
43813;SDS011;29669;55.706;37.656;2023-07-30T10:37:17;7.50;;;2.60;;
43813;SDS011;29669;55.706;37.656;2023-07-30T10:39:48;7.22;;;2.20;;
43813;SDS011;29669;55.706;37.656;2023-07-30T10:42:16;5.53;;;2.40;;
43813;SDS011;29669;55.706;37.656;2023-07-30T10:44:46;3.20;;;2.65;;
43813;SDS011;29669;55.706;37.656;2023-07-30T10:47:13;2.42;;;2.20;;
43813;SDS011;29669;55.706;37.656;2023-07-30T10:50:01;2.95;;;2.20;;
43813;SDS011;29669;55.706;37.656;2023-07-30T10:52:30;3.35;;;2.20;;
43813;SDS011;29669;55.706;37.656;2023-07-30T10:55:01;2.95;;;2.03;;
43813;SDS011;29669;55.706;37.656;2023-07-30T10:57:31;4.25;;;2.40;;
43813;SDS011;29669;55.706;37.656;2023-07-30T10:59:59;4.15;;;1.80;;
43813;SDS011;29669;55.706;37.656;2023-07-30T11:02:30;2.92;;;1.95;;
43813;SDS011;29669;55.706;37.656;2023-07-30T11:04:58;2.00;;;1.75;;
43813;SDS011;29669;55.706;37.656;2023-07-30T11:07:38;4.90;;;2.05;;
43813;SDS011;29669;55.706;37.656;2023-07-30T11:10:06;2.40;;;2.20;;
43813;SDS011;29669;55.706;37.656;2023-07-30T11:12:34;6.82;;;2.78;;
43813;SDS011;29669;55.706;37.656;2023-07-30T11:15:02;2.05;;;1.85;;
43813;SDS011;29669;55.706;37.656;2023-07-30T11:17:32;4.28;;;2.65;;
43813;SDS011;29669;55.706;37.656;2023-07-30T11:20:00;4.18;;;2.58;;
43813;SDS011;29669;55.706;37.656;2023-07-30T11:22:30;3.38;;;1.90;;
43813;SDS011;29669;55.706;37.656;2023-07-30T11:24:58;3.88;;;2.45;;
43813;SDS011;29669;55.706;37.656;2023-07-30T11:27:31;5.90;;;2.20;;
43813;SDS011;29669;55.706;37.656;2023-07-30T11:36:36;6.40;;;2.28;;
43813;SDS011;29669;55.706;37.656;2023-07-30T11:40:00;2.67;;;2.20;;
43813;SDS011;29669;55.706;37.656;2023-07-30T15:10:23;3.55;;;1.73;;
43813;SDS011;29669;55.706;37.656;2023-07-30T15:12:56;3.28;;;1.98;;
43813;SDS011;29669;55.706;37.656;2023-07-30T15:15:29;2.10;;;1.90;;
43813;SDS011;29669;55.706;37.656;2023-07-30T15:17:59;2.30;;;2.10;;
43813;SDS011;29669;55.706;37.656;2023-07-30T15:20:34;1.98;;;1.65;;
43813;SDS011;29669;55.706;37.656;2023-07-30T15:23:02;4.55;;;2.03;;
43813;SDS011;29669;55.706;37.656;2023-07-30T15:25:30;7.50;;;1.90;;
43813;SDS011;29669;55.706;37.656;2023-07-30T15:28:00;2.75;;;1.92;;
43813;SDS011;29669;55.706;37.656;2023-07-30T15:30:28;2.03;;;1.83;;
43813;SDS011;29669;55.706;37.656;2023-07-30T15:32:56;2.65;;;1.83;;
43813;SDS011;29669;55.706;37.656;2023-07-30T15:35:28;2.75;;;1.98;;
43813;SDS011;29669;55.706;37.656;2023-07-30T15:38:05;2.60;;;2.20;;
43813;SDS011;29669;55.706;37.656;2023-07-30T15:41:10;2.20;;;2.00;;
43813;SDS011;29669;55.706;37.656;2023-07-30T15:43:49;4.75;;;2.42;;
43813;SDS011;29669;55.706;37.656;2023-07-30T15:51:48;2.30;;;2.10;;
43813;SDS011;29669;55.706;37.656;2023-07-30T15:55:23;1.92;;;1.60;;
43813;SDS011;29669;55.706;37.656;2023-07-30T15:59:03;5.72;;;2.10;;
43813;SDS011;29669;55.706;37.656;2023-07-30T16:02:40;2.08;;;1.88;;
43813;SDS011;29669;55.706;37.656;2023-07-30T16:05:18;11.77;;;7.30;;
43813;SDS011;29669;55.706;37.656;2023-07-30T16:08:03;3.30;;;1.80;;
43813;SDS011;29669;55.706;37.656;2023-07-30T16:10:40;4.45;;;2.03;;
43813;SDS011;29669;55.706;37.656;2023-07-30T16:13:14;3.00;;;1.80;;
43813;SDS011;29669;55.706;37.656;2023-07-30T16:15:44;1.80;;;1.70;;
43813;SDS011;29669;55.706;37.656;2023-07-30T16:18:31;3.72;;;1.90;;
43813;SDS011;29669;55.706;37.656;2023-07-30T16:21:09;4.88;;;2.03;;
43813;SDS011;29669;55.706;37.656;2023-07-30T16:23:58;5.57;;;1.85;;
43813;SDS011;29669;55.706;37.656;2023-07-30T16:26:34;2.08;;;1.70;;
43813;SDS011;29669;55.706;37.656;2023-07-30T16:29:03;2.40;;;2.20;;
43813;SDS011;29669;55.706;37.656;2023-07-30T16:31:45;1.73;;;1.40;;
43813;SDS011;29669;55.706;37.656;2023-07-30T16:34:24;1.70;;;1.60;;
43813;SDS011;29669;55.706;37.656;2023-07-30T16:36:57;2.38;;;1.77;;
43813;SDS011;29669;55.706;37.656;2023-07-30T16:39:28;2.42;;;1.80;;
43813;SDS011;29669;55.706;37.656;2023-07-30T16:41:59;2.40;;;2.00;;
43813;SDS011;29669;55.706;37.656;2023-07-30T16:44:28;3.80;;;2.00;;
43813;SDS011;29669;55.706;37.656;2023-07-30T16:47:01;3.88;;;1.83;;
43813;SDS011;29669;55.706;37.656;2023-07-30T16:49:42;5.35;;;2.10;;
43813;SDS011;29669;55.706;37.656;2023-07-30T16:52:16;3.80;;;2.00;;
43813;SDS011;29669;55.706;37.656;2023-07-30T16:54:46;3.67;;;2.30;;
43813;SDS011;29669;55.706;37.656;2023-07-30T16:57:18;6.80;;;3.00;;
43813;SDS011;29669;55.706;37.656;2023-07-30T17:00:32;3.85;;;3.28;;
43813;SDS011;29669;55.706;37.656;2023-07-30T17:03:05;4.82;;;2.40;;
43813;SDS011;29669;55.706;37.656;2023-07-30T17:05:35;4.65;;;2.30;;
43813;SDS011;29669;55.706;37.656;2023-07-30T17:08:04;2.67;;;2.45;;
43813;SDS011;29669;55.706;37.656;2023-07-30T17:10:35;2.50;;;2.03;;
43813;SDS011;29669;55.706;37.656;2023-07-30T17:13:04;2.40;;;2.20;;
43813;SDS011;29669;55.706;37.656;2023-07-30T17:15:31;4.13;;;2.63;;
43813;SDS011;29669;55.706;37.656;2023-07-30T17:18:02;3.25;;;2.33;;
43813;SDS011;29669;55.706;37.656;2023-07-30T17:20:30;9.30;;;3.88;;
43813;SDS011;29669;55.706;37.656;2023-07-30T17:22:59;2.95;;;2.50;;
43813;SDS011;29669;55.706;37.656;2023-07-30T17:25:27;6.10;;;2.15;;
43813;SDS011;29669;55.706;37.656;2023-07-30T17:27:56;2.72;;;2.20;;
43813;SDS011;29669;55.706;37.656;2023-07-30T17:30:24;2.60;;;2.00;;
43813;SDS011;29669;55.706;37.656;2023-07-30T17:32:51;4.32;;;2.70;;
43813;SDS011;29669;55.706;37.656;2023-07-30T17:41:09;4.63;;;2.38;;
43813;SDS011;29669;55.706;37.656;2023-07-30T17:43:45;3.20;;;2.10;;
43813;SDS011;29669;55.706;37.656;2023-07-30T17:46:13;6.35;;;2.28;;
43813;SDS011;29669;55.706;37.656;2023-07-30T17:48:49;3.67;;;2.58;;
43813;SDS011;29669;55.706;37.656;2023-07-30T17:51:25;3.00;;;2.38;;
43813;SDS011;29669;55.706;37.656;2023-07-30T17:53:56;3.53;;;2.03;;
43813;SDS011;29669;55.706;37.656;2023-07-30T17:56:25;5.28;;;2.53;;
43813;SDS011;29669;55.706;37.656;2023-07-30T17:59:03;4.07;;;2.20;;
43813;SDS011;29669;55.706;37.656;2023-07-30T18:01:42;7.57;;;2.85;;
43813;SDS011;29669;55.706;37.656;2023-07-30T18:04:13;5.03;;;3.38;;
43813;SDS011;29669;55.706;37.656;2023-07-30T18:06:40;7.68;;;5.22;;
43813;SDS011;29669;55.706;37.656;2023-07-30T18:09:44;11.30;;;8.00;;
43813;SDS011;29669;55.706;37.656;2023-07-30T18:12:58;14.18;;;8.80;;
43813;SDS011;29669;55.706;37.656;2023-07-30T18:15:28;13.70;;;6.38;;
43813;SDS011;29669;55.706;37.656;2023-07-30T18:18:00;8.18;;;4.72;;
43813;SDS011;29669;55.706;37.656;2023-07-30T18:20:32;18.50;;;7.22;;
43813;SDS011;29669;55.706;37.656;2023-07-30T18:23:02;10.02;;;4.97;;
43813;SDS011;29669;55.706;37.656;2023-07-30T18:25:30;14.82;;;4.63;;
43813;SDS011;29669;55.706;37.656;2023-07-30T18:27:59;8.35;;;4.15;;
43813;SDS011;29669;55.706;37.656;2023-07-30T18:30:27;5.00;;;2.70;;
43813;SDS011;29669;55.706;37.656;2023-07-30T18:32:55;8.15;;;3.35;;
43813;SDS011;29669;55.706;37.656;2023-07-30T18:35:35;5.88;;;3.20;;
43813;SDS011;29669;55.706;37.656;2023-07-30T18:38:03;4.38;;;2.75;;
43813;SDS011;29669;55.706;37.656;2023-07-30T18:40:37;4.20;;;2.80;;
43813;SDS011;29669;55.706;37.656;2023-07-30T18:43:07;4.30;;;2.78;;
43813;SDS011;29669;55.706;37.656;2023-07-30T18:45:37;4.78;;;2.90;;
43813;SDS011;29669;55.706;37.656;2023-07-30T18:48:05;6.57;;;2.67;;
43813;SDS011;29669;55.706;37.656;2023-07-30T18:50:34;6.70;;;2.90;;
43813;SDS011;29669;55.706;37.656;2023-07-30T18:53:05;11.93;;;3.17;;
43813;SDS011;29669;55.706;37.656;2023-07-30T18:55:57;3.83;;;3.13;;
43813;SDS011;29669;55.706;37.656;2023-07-30T19:02:07;5.07;;;3.05;;
43813;SDS011;29669;55.706;37.656;2023-07-30T19:04:38;4.60;;;3.00;;
43813;SDS011;29669;55.706;37.656;2023-07-30T19:07:15;6.93;;;2.92;;
43813;SDS011;29669;55.706;37.656;2023-07-30T19:10:34;6.93;;;3.75;;
43813;SDS011;29669;55.706;37.656;2023-07-30T19:13:02;8.65;;;2.97;;
43813;SDS011;29669;55.706;37.656;2023-07-30T19:15:32;5.45;;;2.97;;
43813;SDS011;29669;55.706;37.656;2023-07-30T19:18:00;3.55;;;3.15;;
43813;SDS011;29669;55.706;37.656;2023-07-30T19:20:31;3.28;;;2.60;;
43813;SDS011;29669;55.706;37.656;2023-07-30T19:23:13;7.80;;;3.15;;
43813;SDS011;29669;55.706;37.656;2023-07-30T19:25:59;6.70;;;3.30;;
43813;SDS011;29669;55.706;37.656;2023-07-30T19:28:26;6.32;;;3.08;;
43813;SDS011;29669;55.706;37.656;2023-07-30T19:31:08;7.43;;;4.45;;
43813;SDS011;29669;55.706;37.656;2023-07-30T19:33:47;4.10;;;3.20;;
43813;SDS011;29669;55.706;37.656;2023-07-30T19:36:15;5.90;;;4.00;;
43813;SDS011;29669;55.706;37.656;2023-07-30T19:38:44;7.07;;;3.55;;
43813;SDS011;29669;55.706;37.656;2023-07-30T19:41:12;7.90;;;3.38;;
43813;SDS011;29669;55.706;37.656;2023-07-30T19:43:56;4.65;;;3.10;;
43813;SDS011;29669;55.706;37.656;2023-07-30T19:46:24;6.63;;;3.35;;
43813;SDS011;29669;55.706;37.656;2023-07-30T19:48:52;8.63;;;3.22;;
43813;SDS011;29669;55.706;37.656;2023-07-30T19:51:21;5.00;;;3.35;;
43813;SDS011;29669;55.706;37.656;2023-07-30T19:53:54;5.72;;;3.03;;
43813;SDS011;29669;55.706;37.656;2023-07-30T19:56:22;9.65;;;3.33;;
43813;SDS011;29669;55.706;37.656;2023-07-30T19:58:50;6.57;;;3.50;;
43813;SDS011;29669;55.706;37.656;2023-07-30T20:01:18;4.72;;;3.28;;
43813;SDS011;29669;55.706;37.656;2023-07-30T20:03:48;5.03;;;3.83;;
43813;SDS011;29669;55.706;37.656;2023-07-30T20:06:18;5.10;;;3.58;;
43813;SDS011;29669;55.706;37.656;2023-07-30T20:08:46;6.57;;;4.32;;
43813;SDS011;29669;55.706;37.656;2023-07-30T20:11:16;5.30;;;4.13;;
43813;SDS011;29669;55.706;37.656;2023-07-30T20:13:44;4.05;;;3.35;;
43813;SDS011;29669;55.706;37.656;2023-07-30T20:16:12;8.73;;;3.60;;
43813;SDS011;29669;55.706;37.656;2023-07-30T20:18:41;7.00;;;3.47;;
43813;SDS011;29669;55.706;37.656;2023-07-30T20:21:09;4.43;;;3.13;;
43813;SDS011;29669;55.706;37.656;2023-07-30T20:23:37;7.65;;;3.25;;
43813;SDS011;29669;55.706;37.656;2023-07-30T20:26:15;3.70;;;3.13;;
43813;SDS011;29669;55.706;37.656;2023-07-30T20:28:44;6.72;;;3.40;;
43813;SDS011;29669;55.706;37.656;2023-07-30T20:31:15;5.90;;;3.28;;
43813;SDS011;29669;55.706;37.656;2023-07-30T20:33:43;4.63;;;3.60;;
43813;SDS011;29669;55.706;37.656;2023-07-30T20:36:11;6.82;;;3.50;;
43813;SDS011;29669;55.706;37.656;2023-07-30T20:38:38;4.82;;;3.50;;
43813;SDS011;29669;55.706;37.656;2023-07-30T20:41:06;3.72;;;3.13;;
43813;SDS011;29669;55.706;37.656;2023-07-30T20:43:34;6.70;;;3.65;;
43813;SDS011;29669;55.706;37.656;2023-07-30T20:46:07;9.90;;;3.88;;
43813;SDS011;29669;55.706;37.656;2023-07-30T20:48:37;5.53;;;3.47;;
43813;SDS011;29669;55.706;37.656;2023-07-30T20:51:05;3.80;;;3.00;;
43813;SDS011;29669;55.706;37.656;2023-07-30T20:53:33;5.80;;;3.25;;
43813;SDS011;29669;55.706;37.656;2023-07-30T20:56:01;8.05;;;3.40;;
43813;SDS011;29669;55.706;37.656;2023-07-30T20:58:30;3.83;;;3.20;;
43813;SDS011;29669;55.706;37.656;2023-07-30T21:01:00;5.88;;;3.40;;
43813;SDS011;29669;55.706;37.656;2023-07-30T21:03:31;6.40;;;3.00;;
43813;SDS011;29669;55.706;37.656;2023-07-30T21:06:02;5.95;;;3.63;;
43813;SDS011;29669;55.706;37.656;2023-07-30T21:08:30;3.78;;;3.20;;
43813;SDS011;29669;55.706;37.656;2023-07-30T21:10:58;4.90;;;3.67;;
43813;SDS011;29669;55.706;37.656;2023-07-30T21:13:26;6.55;;;3.58;;
43813;SDS011;29669;55.706;37.656;2023-07-30T21:15:54;6.60;;;3.95;;
43813;SDS011;29669;55.706;37.656;2023-07-30T21:18:22;3.50;;;3.20;;
43813;SDS011;29669;55.706;37.656;2023-07-30T21:20:49;8.85;;;3.50;;
43813;SDS011;29669;55.706;37.656;2023-07-30T21:23:17;7.22;;;4.75;;
43813;SDS011;29669;55.706;37.656;2023-07-30T21:25:44;9.77;;;3.53;;
43813;SDS011;29669;55.706;37.656;2023-07-30T21:28:12;5.40;;;3.70;;
43813;SDS011;29669;55.706;37.656;2023-07-30T21:30:44;14.20;;;8.63;;
43813;SDS011;29669;55.706;37.656;2023-07-30T21:33:11;7.57;;;5.65;;
43813;SDS011;29669;55.706;37.656;2023-07-30T21:35:49;8.60;;;3.70;;
43813;SDS011;29669;55.706;37.656;2023-07-30T21:38:32;10.35;;;5.72;;
43813;SDS011;29669;55.706;37.656;2023-07-30T21:41:00;7.95;;;4.25;;
43813;SDS011;29669;55.706;37.656;2023-07-30T21:43:29;8.05;;;3.83;;
43813;SDS011;29669;55.706;37.656;2023-07-30T21:45:57;6.45;;;3.60;;
43813;SDS011;29669;55.706;37.656;2023-07-30T21:48:26;6.55;;;3.60;;
43813;SDS011;29669;55.706;37.656;2023-07-30T21:50:57;8.45;;;3.67;;
43813;SDS011;29669;55.706;37.656;2023-07-30T21:53:30;5.35;;;3.78;;
43813;SDS011;29669;55.706;37.656;2023-07-30T21:55:58;6.47;;;3.45;;
43813;SDS011;29669;55.706;37.656;2023-07-30T21:58:26;7.97;;;3.80;;
43813;SDS011;29669;55.706;37.656;2023-07-30T22:00:54;9.95;;;3.50;;
43813;SDS011;29669;55.706;37.656;2023-07-30T22:03:24;7.55;;;3.80;;
43813;SDS011;29669;55.706;37.656;2023-07-30T22:05:55;6.63;;;3.58;;
43813;SDS011;29669;55.706;37.656;2023-07-30T22:08:23;4.22;;;3.30;;
43813;SDS011;29669;55.706;37.656;2023-07-30T22:10:51;6.05;;;3.50;;
43813;SDS011;29669;55.706;37.656;2023-07-30T22:13:19;5.63;;;3.50;;
43813;SDS011;29669;55.706;37.656;2023-07-30T22:15:47;4.57;;;3.25;;
43813;SDS011;29669;55.706;37.656;2023-07-30T22:18:15;4.53;;;3.80;;
43813;SDS011;29669;55.706;37.656;2023-07-30T22:20:43;7.60;;;3.42;;
43813;SDS011;29669;55.706;37.656;2023-07-30T22:23:10;3.92;;;3.22;;
43813;SDS011;29669;55.706;37.656;2023-07-30T22:25:41;7.05;;;3.42;;
43813;SDS011;29669;55.706;37.656;2023-07-30T22:28:08;4.70;;;3.35;;
43813;SDS011;29669;55.706;37.656;2023-07-30T22:30:40;8.55;;;3.17;;
43813;SDS011;29669;55.706;37.656;2023-07-30T22:33:08;6.30;;;4.05;;
43813;SDS011;29669;55.706;37.656;2023-07-30T22:35:36;7.97;;;4.20;;
43813;SDS011;29669;55.706;37.656;2023-07-30T22:38:04;4.63;;;3.60;;
43813;SDS011;29669;55.706;37.656;2023-07-30T22:40:32;9.73;;;3.85;;
43813;SDS011;29669;55.706;37.656;2023-07-30T22:43:00;5.57;;;3.47;;
43813;SDS011;29669;55.706;37.656;2023-07-30T22:45:27;6.30;;;3.47;;
43813;SDS011;29669;55.706;37.656;2023-07-30T22:47:55;5.65;;;4.00;;
43813;SDS011;29669;55.706;37.656;2023-07-30T22:50:23;7.82;;;3.88;;
43813;SDS011;29669;55.706;37.656;2023-07-30T22:52:51;7.97;;;3.75;;
43813;SDS011;29669;55.706;37.656;2023-07-30T22:55:18;4.25;;;3.58;;
43813;SDS011;29669;55.706;37.656;2023-07-30T22:57:50;5.38;;;4.10;;
43813;SDS011;29669;55.706;37.656;2023-07-30T23:54:27;4.28;;;3.20;;
43813;SDS011;29669;55.706;37.656;2023-07-30T23:56:55;5.43;;;3.28;;
43813;SDS011;29669;55.706;37.656;2023-07-30T23:59:23;7.15;;;3.75;;
